Terminal Aerodrome Forecast
Issued by NWS

Home | Current Version | Previous Version | Text Only | Print | Product List | Glossary On
Versions: 1 2 3 4 5 6 7 8 9 10 11 12 13 14 15 16 17 18 19 20
000
FTUS46 KPDT 272100 AAA
TAFDLS
TAF AMD
KDLS 272102Z 2721/2818 09006KT P6SM -RA OVC030
     FM272200 08010KT P6SM VCSH SCT030 OVC060
     FM280300 08010KT P6SM SCT060 BKN100
     FM281300 08010KT P6SM SKC=

USA.gov is the U.S. government's official web portal to all federal, state and local government web resources and services.